createdAt,value
2018-11-05T00:01:08.592Z,78.80
2018-11-05T00:03:35.563Z,78.50
2018-11-05T00:06:02.539Z,78.80
2018-11-05T00:08:29.388Z,78.60
2018-11-05T00:10:56.130Z,78.60
2018-11-05T00:13:22.914Z,78.60
2018-11-05T00:15:49.805Z,78.70
2018-11-05T00:18:16.754Z,78.70
2018-11-05T00:20:43.764Z,78.60
2018-11-05T00:23:11.098Z,78.60
2018-11-05T00:25:38.085Z,78.80
2018-11-05T00:28:04.879Z,78.80
2018-11-05T00:30:32.040Z,78.80
2018-11-05T00:32:59.371Z,78.60
2018-11-05T00:35:26.200Z,78.70
2018-11-05T00:37:53.008Z,78.70
2018-11-05T00:40:19.794Z,78.60
2018-11-05T00:42:47.095Z,78.80
2018-11-05T00:45:14.861Z,78.70
2018-11-05T00:47:41.989Z,79.50
2018-11-05T00:50:09.691Z,78.70
2018-11-05T00:52:36.555Z,78.60
2018-11-05T00:55:03.431Z,78.80
2018-11-05T00:57:30.357Z,78.80
2018-11-05T00:59:57.170Z,78.70
2018-11-05T01:02:23.950Z,78.60
2018-11-05T01:04:50.724Z,78.80
2018-11-05T01:07:17.811Z,78.70
2018-11-05T01:09:44.680Z,78.60
2018-11-05T01:12:11.594Z,78.60
2018-11-05T01:14:38.395Z,78.60
2018-11-05T01:17:05.281Z,78.80
2018-11-05T01:19:32.571Z,78.70
2018-11-05T01:21:59.695Z,78.60
2018-11-05T01:24:26.805Z,78.50
2018-11-05T01:26:53.855Z,78.70
2018-11-05T01:29:20.856Z,78.70
2018-11-05T01:31:47.679Z,78.70
2018-11-05T01:34:15.631Z,78.60
2018-11-05T01:36:42.485Z,78.80
2018-11-05T01:39:10.663Z,78.70
2018-11-05T01:41:37.797Z,78.80
2018-11-05T01:44:04.617Z,78.70
2018-11-05T01:46:31.685Z,78.80
2018-11-05T01:48:58.526Z,78.70
2018-11-05T01:51:25.380Z,78.80
2018-11-05T01:53:52.222Z,78.70
2018-11-05T01:56:19.321Z,77.80
2018-11-05T01:58:46.590Z,78.70
2018-11-05T02:01:13.402Z,78.70
2018-11-05T02:03:40.592Z,78.70
2018-11-05T02:06:07.398Z,78.70
2018-11-05T02:08:34.190Z,78.70
2018-11-05T02:11:01.252Z,78.50
2018-11-05T02:13:28.503Z,78.80
2018-11-05T02:15:55.278Z,78.70
2018-11-05T02:18:22.295Z,78.90
2018-11-05T02:20:49.476Z,78.60
2018-11-05T02:23:16.829Z,78.80
2018-11-05T02:25:43.661Z,78.80
2018-11-05T02:28:10.459Z,78.70
2018-11-05T02:30:37.706Z,78.80
2018-11-05T02:33:04.480Z,78.70
2018-11-05T02:35:31.234Z,78.50
2018-11-05T02:37:58.087Z,78.80
2018-11-05T02:40:24.855Z,78.80
2018-11-05T02:42:52.094Z,78.80
2018-11-05T02:45:20.011Z,78.80
2018-11-05T02:47:46.998Z,78.90
2018-11-05T02:50:14.036Z,78.80
2018-11-05T02:52:41.723Z,79.20
2018-11-05T02:55:08.860Z,78.70
2018-11-05T02:57:35.979Z,78.80
2018-11-05T03:00:02.757Z,78.70
2018-11-05T03:02:29.611Z,78.80
2018-11-05T03:04:56.817Z,79.60
2018-11-05T03:07:23.771Z,78.70
2018-11-05T03:09:50.644Z,78.80
2018-11-05T03:12:17.431Z,78.80
2018-11-05T03:14:44.327Z,78.90
2018-11-05T03:17:11.280Z,78.70
2018-11-05T03:19:38.113Z,78.80
2018-11-05T03:22:04.893Z,78.90
2018-11-05T03:24:31.864Z,78.90
2018-11-05T03:26:58.668Z,78.80
2018-11-05T03:29:25.469Z,78.80
2018-11-05T03:31:52.901Z,78.80
2018-11-05T03:34:19.932Z,78.80
2018-11-05T03:36:46.767Z,78.80
2018-11-05T03:39:14.017Z,78.80
2018-11-05T03:41:40.891Z,78.80
2018-11-05T03:44:08.350Z,78.90
2018-11-05T03:46:35.485Z,78.80
2018-11-05T03:49:02.599Z,78.90
2018-11-05T03:51:29.650Z,78.80
2018-11-05T03:53:56.469Z,78.80
2018-11-05T03:56:23.502Z,78.90
2018-11-05T03:58:50.055Z,78.90
2018-11-05T04:01:17.359Z,78.80
2018-11-05T04:03:44.568Z,78.90
2018-11-05T04:06:11.484Z,78.80
2018-11-05T04:08:38.458Z,78.80
2018-11-05T04:11:05.272Z,78.90
2018-11-05T04:13:32.071Z,78.70
2018-11-05T04:15:58.955Z,78.80
2018-11-05T04:18:25.797Z,78.90
2018-11-05T04:20:52.600Z,78.80
2018-11-05T04:23:19.526Z,78.80
2018-11-05T04:25:46.383Z,79.00
2018-11-05T04:28:13.168Z,78.80
2018-11-05T04:30:39.962Z,78.90
2018-11-05T04:33:06.914Z,78.90
2018-11-05T04:35:33.902Z,78.90
2018-11-05T04:38:00.738Z,78.90
2018-11-05T04:40:27.598Z,78.90
2018-11-05T04:42:54.464Z,78.80
2018-11-05T04:45:21.300Z,78.90
2018-11-05T04:47:48.116Z,78.70
2018-11-05T04:50:14.855Z,78.90
2018-11-05T04:52:42.249Z,78.90
2018-11-05T04:55:09.036Z,78.90
2018-11-05T04:57:36.108Z,78.90
2018-11-05T05:00:13.180Z,78.90
2018-11-05T05:02:41.076Z,79.00
2018-11-05T05:05:08.158Z,78.90
2018-11-05T05:07:35.054Z,78.90
2018-11-05T05:10:01.863Z,78.90
2018-11-05T05:12:28.812Z,78.90
2018-11-05T05:14:55.751Z,79.00
2018-11-05T05:17:22.857Z,79.00
2018-11-05T05:19:49.633Z,78.90
2018-11-05T05:22:16.602Z,78.90
2018-11-05T05:24:43.339Z,78.90
2018-11-05T05:27:10.135Z,79.00
2018-11-05T05:29:37.057Z,78.90
2018-11-05T05:32:03.837Z,78.90
2018-11-05T05:34:30.613Z,78.90
2018-11-05T05:36:57.590Z,78.90
2018-11-05T05:39:24.673Z,78.90
2018-11-05T05:41:51.427Z,78.90
2018-11-05T05:44:18.250Z,78.90
2018-11-05T05:46:45.399Z,78.90
2018-11-05T05:49:12.751Z,78.90
2018-11-05T05:51:39.556Z,78.80
2018-11-05T05:54:06.324Z,78.90
2018-11-05T05:56:33.497Z,79.00
2018-11-05T05:59:00.341Z,78.90
2018-11-05T06:01:27.404Z,79.00
2018-11-05T06:03:54.273Z,78.90
2018-11-05T06:06:21.319Z,79.00
2018-11-05T06:08:47.932Z,79.00
2018-11-05T06:11:14.748Z,79.00
2018-11-05T06:13:41.532Z,78.90
2018-11-05T06:16:08.284Z,78.90
2018-11-05T06:18:35.518Z,78.90
2018-11-05T06:21:02.308Z,79.00
2018-11-05T06:23:29.160Z,78.90
2018-11-05T06:25:56.084Z,78.80
2018-11-05T06:28:23.042Z,78.80
2018-11-05T06:30:49.824Z,79.00
2018-11-05T06:33:18.344Z,78.90
2018-11-05T06:35:45.182Z,78.90
2018-11-05T06:38:12.065Z,78.90
2018-11-05T06:40:39.268Z,78.90
2018-11-05T06:43:06.068Z,78.90
2018-11-05T06:45:33.124Z,79.00
2018-11-05T06:47:59.938Z,78.90
2018-11-05T06:50:27.646Z,79.00
2018-11-05T06:52:54.802Z,79.00
2018-11-05T06:55:21.763Z,79.00
2018-11-05T06:57:48.697Z,78.90
2018-11-05T07:00:20.067Z,79.00
2018-11-05T07:02:46.866Z,79.00
2018-11-05T07:05:14.571Z,79.00
2018-11-05T07:07:41.611Z,79.00
2018-11-05T07:10:08.805Z,79.00
2018-11-05T07:12:35.652Z,79.00
2018-11-05T07:15:02.675Z,79.00
2018-11-05T07:25:47.649Z,78.90
2018-11-05T07:28:14.588Z,78.90
2018-11-05T07:30:41.431Z,79.00
2018-11-05T07:33:08.304Z,79.00
2018-11-05T07:35:35.482Z,78.90
2018-11-05T07:38:02.402Z,79.00
2018-11-05T07:40:29.211Z,79.00
2018-11-05T07:42:56.011Z,79.00
2018-11-05T07:45:23.814Z,79.00
2018-11-05T07:47:50.891Z,79.00
2018-11-05T07:50:19.304Z,79.00
2018-11-05T07:52:46.026Z,79.00
2018-11-05T07:55:14.213Z,79.00
2018-11-05T07:57:42.125Z,79.00
2018-11-05T08:00:26.871Z,79.00
2018-11-05T08:02:55.139Z,79.10
2018-11-05T08:05:22.636Z,79.10
2018-11-05T08:07:49.958Z,79.00
2018-11-05T08:10:16.778Z,79.00
2018-11-05T08:12:43.672Z,79.50
2018-11-05T08:15:18.000Z,79.10
2018-11-05T08:17:46.093Z,79.10
2018-11-05T08:20:13.515Z,79.10
2018-11-05T08:22:41.093Z,79.20
2018-11-05T08:25:07.863Z,79.20
2018-11-05T08:27:34.962Z,79.10
2018-11-05T08:30:02.004Z,79.20
2018-11-05T08:32:29.214Z,79.20
2018-11-05T08:34:56.426Z,80.00
2018-11-05T08:37:23.439Z,79.20
2018-11-05T08:39:50.509Z,79.20
2018-11-05T08:42:17.318Z,79.20
2018-11-05T08:44:44.151Z,79.30
2018-11-05T08:47:10.935Z,79.20
2018-11-05T08:49:37.748Z,79.20
2018-11-05T08:52:04.574Z,79.30
2018-11-05T08:54:31.772Z,79.30
2018-11-05T08:56:58.575Z,79.20
2018-11-05T08:59:25.732Z,79.60
2018-11-05T09:01:52.557Z,79.20
2018-11-05T09:04:19.391Z,79.20
2018-11-05T09:06:46.216Z,79.20
2018-11-05T09:09:13.112Z,79.20
2018-11-05T09:11:40.459Z,79.20
2018-11-05T09:14:10.400Z,79.20
2018-11-05T09:16:37.378Z,79.90
2018-11-05T09:19:04.676Z,79.20
2018-11-05T09:21:31.545Z,79.10
2018-11-05T09:23:58.432Z,79.10
2018-11-05T09:26:25.620Z,79.20
2018-11-05T09:28:52.564Z,79.20
2018-11-05T09:31:19.652Z,79.20
2018-11-05T09:33:46.746Z,79.20
2018-11-05T09:36:13.697Z,80.10
2018-11-05T09:38:40.496Z,79.20
2018-11-05T09:41:07.420Z,79.30
2018-11-05T09:43:34.245Z,79.30
2018-11-05T09:46:01.049Z,79.20
2018-11-05T09:48:27.972Z,79.20
2018-11-05T09:50:54.750Z,79.20
2018-11-05T09:53:22.760Z,79.20
2018-11-05T09:55:49.656Z,79.30
2018-11-05T09:58:16.519Z,79.20
2018-11-05T10:00:43.565Z,79.20
2018-11-05T10:03:17.518Z,79.20
2018-11-05T10:05:44.252Z,79.20
2018-11-05T10:08:11.384Z,79.20
2018-11-05T10:10:38.180Z,79.30
2018-11-05T10:13:05.109Z,79.30
2018-11-05T10:15:32.144Z,79.30
2018-11-05T10:17:59.495Z,79.30
2018-11-05T10:20:26.401Z,79.20
2018-11-05T10:22:53.367Z,79.00
2018-11-05T10:25:20.478Z,79.30
2018-11-05T10:27:48.044Z,80.10
2018-11-05T10:30:16.700Z,79.30
2018-11-05T10:32:43.815Z,79.30
2018-11-05T10:35:11.157Z,79.40
2018-11-05T10:37:38.130Z,79.30
2018-11-05T10:40:05.058Z,79.30
2018-11-05T10:42:31.962Z,79.30
2018-11-05T10:44:58.894Z,79.40
2018-11-05T10:47:25.865Z,79.40
2018-11-05T10:49:52.624Z,79.50
2018-11-05T10:52:19.439Z,79.40
2018-11-05T10:54:46.324Z,79.40
2018-11-05T10:57:13.330Z,80.20
2018-11-05T10:59:40.478Z,79.40
2018-11-05T11:02:25.576Z,79.50
2018-11-05T11:04:52.514Z,80.20
2018-11-05T11:07:19.499Z,79.40
2018-11-05T11:09:46.387Z,79.40
2018-11-05T11:14:40.995Z,79.40
2018-11-05T11:17:07.799Z,79.40
2018-11-05T11:19:35.066Z,79.40
2018-11-05T11:22:02.310Z,79.30
2018-11-05T11:24:29.491Z,79.30
2018-11-05T11:26:56.375Z,79.40
2018-11-05T11:29:23.369Z,79.50
2018-11-05T11:31:50.143Z,79.30
2018-11-05T11:34:17.365Z,79.50
2018-11-05T11:36:44.292Z,79.40
2018-11-05T11:39:12.024Z,79.40
2018-11-05T11:41:38.844Z,79.50
2018-11-05T11:44:06.115Z,79.40
2018-11-05T11:46:33.062Z,79.50
2018-11-05T11:49:00.037Z,79.50
2018-11-05T11:51:26.939Z,79.40
2018-11-05T11:53:54.157Z,79.40
2018-11-05T11:56:21.062Z,79.50
2018-11-05T11:58:53.015Z,79.40
2018-11-05T12:01:20.368Z,79.50
2018-11-05T12:03:47.163Z,79.40
2018-11-05T12:06:14.147Z,79.40
2018-11-05T12:08:41.077Z,79.50
2018-11-05T12:11:07.864Z,79.50
2018-11-05T12:13:35.092Z,79.50
2018-11-05T12:16:02.489Z,79.50
2018-11-05T12:18:29.372Z,79.70
2018-11-05T12:20:56.326Z,79.50
2018-11-05T12:23:23.155Z,79.50
2018-11-05T12:25:49.986Z,79.50
2018-11-05T12:28:17.130Z,79.40
2018-11-05T12:30:44.158Z,79.50
2018-11-05T12:33:10.973Z,79.40
2018-11-05T12:35:37.820Z,79.40
2018-11-05T12:38:05.210Z,79.50
2018-11-05T12:40:32.491Z,79.40
2018-11-05T12:42:59.344Z,79.40
2018-11-05T12:45:26.097Z,79.40
2018-11-05T12:47:52.962Z,79.40
2018-11-05T12:50:23.823Z,79.50
2018-11-05T12:52:51.586Z,80.30
2018-11-05T12:55:18.742Z,79.50
2018-11-05T12:57:45.949Z,79.40
2018-11-05T13:00:13.963Z,79.40
2018-11-05T13:02:40.850Z,79.50
2018-11-05T13:05:07.621Z,79.40
2018-11-05T13:07:34.469Z,79.40
2018-11-05T13:10:01.812Z,79.40
2018-11-05T13:12:28.691Z,79.30
2018-11-05T13:14:55.907Z,79.30
2018-11-05T13:17:22.731Z,79.30
2018-11-05T13:19:49.649Z,79.40
2018-11-05T13:22:16.645Z,79.30
2018-11-05T13:24:43.344Z,79.30
2018-11-05T13:27:10.494Z,79.30
2018-11-05T13:29:37.324Z,79.40
2018-11-05T13:32:04.517Z,79.30
2018-11-05T13:34:33.897Z,79.30
2018-11-05T13:37:01.073Z,79.30
2018-11-05T13:39:27.546Z,79.40
2018-11-05T13:41:54.389Z,79.30
2018-11-05T13:44:21.188Z,79.40
2018-11-05T13:46:48.433Z,79.30
2018-11-05T13:49:15.183Z,79.30
2018-11-05T13:51:42.337Z,79.10
2018-11-05T13:54:09.276Z,79.30
2018-11-05T13:56:35.988Z,79.40
2018-11-05T13:59:02.890Z,79.40
2018-11-05T14:01:29.821Z,79.30
2018-11-05T14:03:57.046Z,79.30
2018-11-05T14:06:23.889Z,79.50
2018-11-05T14:08:50.671Z,79.30
2018-11-05T14:11:17.563Z,79.30
2018-11-05T14:13:44.743Z,79.30
2018-11-05T14:16:11.599Z,79.30
2018-11-05T14:18:38.500Z,79.40
2018-11-05T14:21:05.297Z,79.30
2018-11-05T14:23:32.130Z,79.30
2018-11-05T14:25:59.041Z,79.30
2018-11-05T14:28:26.308Z,79.40
2018-11-05T14:30:53.004Z,79.30
2018-11-05T14:33:19.863Z,79.30
2018-11-05T14:35:46.779Z,79.40
2018-11-05T14:38:13.569Z,79.20
2018-11-05T14:40:40.411Z,79.00
2018-11-05T14:43:07.882Z,79.40
2018-11-05T14:45:34.719Z,79.30
2018-11-05T14:48:01.789Z,79.30
2018-11-05T14:50:28.783Z,79.20
2018-11-05T14:52:56.135Z,79.40
2018-11-05T14:55:23.041Z,79.40
2018-11-05T14:57:51.022Z,79.20
2018-11-05T15:00:24.268Z,79.30
2018-11-05T15:02:51.130Z,79.30
2018-11-05T15:05:18.150Z,79.30
2018-11-05T15:07:46.021Z,79.30
2018-11-05T15:10:13.956Z,79.30
2018-11-05T15:12:40.947Z,79.30
2018-11-05T15:15:08.463Z,79.30
2018-11-05T15:17:35.289Z,79.30
2018-11-05T15:20:03.138Z,79.30
2018-11-05T15:22:29.482Z,79.30
2018-11-05T15:24:57.412Z,79.20
2018-11-05T15:27:24.242Z,79.20
2018-11-05T15:29:51.202Z,79.30
2018-11-05T15:32:17.934Z,79.40
2018-11-05T15:34:44.791Z,79.30
2018-11-05T15:37:12.174Z,79.40
2018-11-05T15:39:39.574Z,79.30
2018-11-05T15:42:06.536Z,80.10
2018-11-05T15:44:33.323Z,79.30
2018-11-05T15:47:00.514Z,79.30
2018-11-05T15:49:27.495Z,79.20
2018-11-05T15:51:54.519Z,79.20
2018-11-05T15:54:21.349Z,79.20
2018-11-05T15:56:48.340Z,79.30
2018-11-05T15:59:15.138Z,79.20
2018-11-05T16:01:42.469Z,79.30
2018-11-05T16:04:09.394Z,79.20
2018-11-05T16:06:36.292Z,79.20
2018-11-05T16:09:03.483Z,79.20
2018-11-05T16:11:30.308Z,79.40
2018-11-05T16:13:57.257Z,79.20
2018-11-05T16:16:24.252Z,79.20
2018-11-05T16:18:51.130Z,79.30
2018-11-05T16:21:18.152Z,79.20
2018-11-05T16:23:45.349Z,79.20
2018-11-05T16:26:12.087Z,79.20
2018-11-05T16:28:38.960Z,79.20
2018-11-05T16:31:06.304Z,79.30
2018-11-05T16:33:33.184Z,79.20
2018-11-05T16:35:59.961Z,79.20
2018-11-05T16:38:26.816Z,79.20
2018-11-05T16:40:53.643Z,79.30
2018-11-05T16:43:20.814Z,79.30
2018-11-05T16:45:47.701Z,80.00
2018-11-05T16:48:14.697Z,79.40
2018-11-05T16:50:41.484Z,79.20
2018-11-05T16:53:08.422Z,79.30
2018-11-05T16:55:35.252Z,79.30
2018-11-05T16:58:02.094Z,79.20
2018-11-05T17:00:29.171Z,79.20
2018-11-05T17:02:55.942Z,79.20
2018-11-05T17:05:22.681Z,79.30
2018-11-05T17:07:49.589Z,79.30
2018-11-05T17:10:16.671Z,79.30
2018-11-05T17:12:44.059Z,79.30
2018-11-05T17:15:15.294Z,79.30
2018-11-05T17:17:42.718Z,79.20
2018-11-05T17:20:09.676Z,79.30
2018-11-05T17:22:36.660Z,79.30
2018-11-05T17:25:03.437Z,79.30
2018-11-05T17:27:30.192Z,80.10
2018-11-05T17:29:56.952Z,79.30
2018-11-05T17:32:23.807Z,79.20
2018-11-05T17:34:50.654Z,79.30
2018-11-05T17:37:17.936Z,79.30
2018-11-05T17:39:44.822Z,80.10
2018-11-05T17:42:11.796Z,79.20
2018-11-05T17:44:38.585Z,79.30
2018-11-05T17:47:05.421Z,79.30
2018-11-05T17:49:32.214Z,79.30
2018-11-05T17:51:59.093Z,79.40
2018-11-05T17:54:25.888Z,79.30
2018-11-05T17:56:52.747Z,79.30
2018-11-05T17:59:19.585Z,79.30
2018-11-05T18:01:46.463Z,79.30
2018-11-05T18:04:13.279Z,79.30
2018-11-05T18:06:40.461Z,79.20
2018-11-05T18:09:07.838Z,79.30
2018-11-05T18:11:34.891Z,79.30
2018-11-05T18:14:01.689Z,79.20
2018-11-05T18:16:28.874Z,79.20
2018-11-05T18:18:55.743Z,79.20
2018-11-05T18:21:22.709Z,79.30
2018-11-05T18:23:49.591Z,79.30
2018-11-05T18:26:16.413Z,79.30
2018-11-05T18:28:43.146Z,79.40
2018-11-05T18:31:10.001Z,79.30
2018-11-05T18:33:36.772Z,79.40
2018-11-05T18:36:03.835Z,79.40
2018-11-05T18:38:30.792Z,79.30
2018-11-05T18:40:57.732Z,79.30
2018-11-05T18:43:24.518Z,79.30
2018-11-05T18:45:51.317Z,79.40
2018-11-05T18:48:18.118Z,79.10
2018-11-05T18:50:44.966Z,80.20
2018-11-05T18:53:11.823Z,79.30
2018-11-05T18:55:39.271Z,79.50
2018-11-05T18:58:06.005Z,79.30
2018-11-05T19:00:32.761Z,79.30
2018-11-05T19:02:59.660Z,79.30
2018-11-05T19:05:28.032Z,79.30
2018-11-05T19:07:54.929Z,79.40
2018-11-05T19:10:21.867Z,80.10
2018-11-05T19:12:49.324Z,79.20
2018-11-05T19:15:16.422Z,79.30
2018-11-05T19:17:44.316Z,79.40
2018-11-05T19:20:11.118Z,80.20
2018-11-05T19:22:39.534Z,79.30
2018-11-05T19:25:06.350Z,79.60
2018-11-05T19:27:33.255Z,79.30
2018-11-05T19:30:00.103Z,79.30
2018-11-05T19:32:27.354Z,79.40
2018-11-05T19:34:54.513Z,79.40
2018-11-05T19:37:21.268Z,79.30
2018-11-05T19:39:48.675Z,79.40
2018-11-05T19:42:15.654Z,79.50
2018-11-05T19:44:42.750Z,79.40
2018-11-05T19:47:09.589Z,79.20
2018-11-05T19:49:36.432Z,79.20
2018-11-05T19:52:03.555Z,79.30
2018-11-05T19:54:30.471Z,79.50
2018-11-05T19:56:57.250Z,79.40
2018-11-05T19:59:23.980Z,79.40
2018-11-05T20:01:51.109Z,79.30
2018-11-05T20:04:17.933Z,79.40
2018-11-05T20:06:44.808Z,79.20
2018-11-05T20:09:11.612Z,79.40
2018-11-05T20:11:38.398Z,79.40
2018-11-05T20:14:05.532Z,79.40
2018-11-05T20:16:32.669Z,79.40
2018-11-05T20:18:59.540Z,79.40
2018-11-05T20:21:26.369Z,79.40
2018-11-05T20:23:53.551Z,79.30
2018-11-05T20:26:21.178Z,79.40
2018-11-05T20:28:48.312Z,79.40
2018-11-05T20:31:15.354Z,79.40
2018-11-05T20:33:43.099Z,79.40
2018-11-05T20:36:09.673Z,79.40
2018-11-05T20:38:36.478Z,79.50
2018-11-05T20:41:04.359Z,79.40
2018-11-05T20:43:31.146Z,79.30
2018-11-05T20:45:58.263Z,79.50
2018-11-05T20:48:25.059Z,79.50
2018-11-05T20:50:51.827Z,79.40
2018-11-05T20:53:18.653Z,79.50
2018-11-05T20:55:45.954Z,79.50
2018-11-05T20:58:12.773Z,79.50
2018-11-05T21:00:39.799Z,79.50
2018-11-05T21:03:06.646Z,79.60
2018-11-05T21:05:34.312Z,79.40
2018-11-05T21:08:01.204Z,80.20
2018-11-05T21:10:28.231Z,79.50
2018-11-05T21:12:55.788Z,79.50
2018-11-05T21:15:23.599Z,79.50
2018-11-05T21:17:50.953Z,79.50
2018-11-05T21:20:18.746Z,80.30
2018-11-05T21:22:46.442Z,79.50
2018-11-05T21:25:13.135Z,79.60
2018-11-05T21:27:40.585Z,79.50
2018-11-05T21:30:07.607Z,79.50
2018-11-05T21:32:34.995Z,79.50
2018-11-05T21:35:01.864Z,79.50
2018-11-05T21:37:28.650Z,79.50
2018-11-05T21:39:55.688Z,79.40
2018-11-05T21:42:23.687Z,79.50
2018-11-05T21:44:50.948Z,79.60
2018-11-05T21:47:18.183Z,79.40
2018-11-05T21:49:44.867Z,79.40
2018-11-05T21:52:11.671Z,79.50
2018-11-05T21:54:38.492Z,79.50
2018-11-05T21:57:05.550Z,79.40
2018-11-05T21:59:32.336Z,79.50
2018-11-05T22:01:59.487Z,79.50
2018-11-05T22:04:26.608Z,79.50
2018-11-05T22:06:53.369Z,79.60
2018-11-05T22:09:20.563Z,79.10
2018-11-05T22:11:48.220Z,79.40
2018-11-05T22:14:15.038Z,79.50
2018-11-05T22:16:41.902Z,79.60
2018-11-05T22:19:09.206Z,79.50
2018-11-05T22:21:36.000Z,79.50
2018-11-05T22:24:03.289Z,79.50
2018-11-05T22:26:30.442Z,79.50
2018-11-05T22:28:57.335Z,79.50
2018-11-05T22:31:24.136Z,79.50
2018-11-05T22:33:51.139Z,79.50
2018-11-05T22:36:18.885Z,79.50
2018-11-05T22:38:45.952Z,79.50
2018-11-05T22:41:12.959Z,79.40
2018-11-05T22:43:39.709Z,79.50
2018-11-05T22:46:06.735Z,79.60
2018-11-05T22:48:33.608Z,79.50
2018-11-05T22:51:00.449Z,79.60
2018-11-05T22:53:27.297Z,79.60
2018-11-05T22:55:54.107Z,79.50
2018-11-05T22:58:20.964Z,79.60
2018-11-05T23:01:06.279Z,79.60
2018-11-05T23:03:33.531Z,79.60
2018-11-05T23:06:00.709Z,79.60
2018-11-05T23:08:27.737Z,79.50
2018-11-05T23:10:54.872Z,79.50
2018-11-05T23:13:22.271Z,79.60
2018-11-05T23:15:49.606Z,79.60
2018-11-05T23:18:16.542Z,79.60
2018-11-05T23:20:43.899Z,79.50
2018-11-05T23:23:11.181Z,79.50
2018-11-05T23:25:38.115Z,79.60
2018-11-05T23:28:05.375Z,79.70
2018-11-05T23:30:32.157Z,79.70
2018-11-05T23:32:59.317Z,79.60
2018-11-05T23:35:26.457Z,79.60
2018-11-05T23:37:53.459Z,79.60
2018-11-05T23:40:20.242Z,79.60
2018-11-05T23:42:47.043Z,79.70
2018-11-05T23:45:15.002Z,79.60
2018-11-05T23:47:42.266Z,79.70
2018-11-05T23:50:09.553Z,79.70
2018-11-05T23:52:36.475Z,79.70
2018-11-05T23:55:03.708Z,79.70
2018-11-05T23:57:30.475Z,79.80
2018-11-05T23:59:57.305Z,79.70
